Flight Sim Network - CYGV Airport Info

    CYGV (Havre St Pierre Airport)  Login to use Map Selector
   

  RUNWAY INFORMATION    |    Airport Elevation : 124ft    |    LAT : 50.2818984985352  /  LON : -63.611400604248
Runway Number 09 / 27 Runway Width 100' Runway Length 4500'
Lighted Runway Yes Runway StatusOpen Runway Surface Asphalt
  CLOSE ALTERNATE AIRPORTS
ICAODistanceAirport NameLongest RWRW SurfaceMAP
CYLP20NMMingan10000FTAsphalt
CYPN37NMPort Menier Airport4886FTAsphalt
CYNA70NMNatashquan Airport4500FTAsphalt
CYGP96NMGaspe4500FTAsphalt
CYZV102NMSept-Îles Airport6552FTAsphalt
  AIRPORT WEATHER
66°F | 19°C
Temperature
52%
Humidity
30" | 1018mb
Pressure
9sm
Visibility
VFR
Flight Rules
CLR
Initial Clouds
FAIR
Conditions
Wind Info
7/23/24 17:00Z
Updated

CYGV 231700Z AUTO 22015G21KT 9SM CLR 19/09 A3007 RMK SLP187 DENSITY ALT 500FT
  AIRPORT FREQUENCIES
NameFrequency
CLEARANCE122.000
MULTICOM123.500
IGV (RWY 9)109.300

Powered by Virtual Airlines Manager